Time;durP1;ratioP1;P1;durP2;ratioP2;P2;SDS_P1;SDS_P2;PMS_P1;PMS_P2;Temp;Humidity;BMP_temperature;BMP_pressure;BME280_temperature;BME280_humidity;BME280_pressure;Samples;Min_cycle;Max_cycle;Signal;HPM_P1;HPM_P2
2023/10/03 00:01:37;;;;;;;50.23;19.40;;;12.50;99.90;;;;;;5022673;28;20510;-60
2023/10/03 00:04:03;;;;;;;52.50;18.70;;;12.50;99.90;;;;;;5027093;28;20274;-58
2023/10/03 00:06:29;;;;;;;55.57;19.33;;;12.40;99.90;;;;;;5027675;28;20445;-58
2023/10/03 00:08:55;;;;;;;68.30;21.40;;;12.40;99.90;;;;;;5025892;28;20612;-58
2023/10/03 00:11:22;;;;;;;129.07;21.73;;;12.40;99.90;;;;;;5027775;28;20271;-59
2023/10/03 00:13:50;;;;;;;61.60;20.47;;;12.40;99.90;;;;;;5026146;28;20175;-58
2023/10/03 00:16:17;;;;;;;84.67;23.30;;;12.40;99.90;;;;;;5024462;28;20458;-59
2023/10/03 00:18:43;;;;;;;69.07;23.80;;;12.30;99.90;;;;;;5022337;28;20457;-58
2023/10/03 00:21:09;;;;;;;54.47;21.13;;;12.30;99.90;;;;;;5026465;28;20524;-59
2023/10/03 00:23:34;;;;;;;52.20;21.90;;;12.30;99.90;;;;;;5026959;28;20970;-59
2023/10/03 00:26:00;;;;;;;55.20;19.70;;;12.30;99.90;;;;;;5025472;28;20179;-58
2023/10/03 00:28:26;;;;;;;54.80;20.33;;;12.30;99.90;;;;;;5027218;28;20283;-59
2023/10/03 00:30:52;;;;;;;62.47;19.97;;;12.20;99.90;;;;;;5023384;28;20651;-57
2023/10/03 00:33:21;;;;;;;57.03;21.57;;;12.20;99.90;;;;;;5026360;28;20433;-59
2023/10/03 00:35:47;;;;;;;67.47;23.70;;;12.20;99.90;;;;;;5024193;28;20284;-58
2023/10/03 00:38:15;;;;;;;73.93;22.20;;;12.20;99.90;;;;;;5025991;28;21032;-59
2023/10/03 00:40:41;;;;;;;87.93;20.53;;;12.20;99.90;;;;;;5026788;28;20167;-59
2023/10/03 00:43:07;;;;;;;59.47;21.70;;;12.20;99.90;;;;;;5022815;28;20484;-59
2023/10/03 00:45:34;;;;;;;59.97;20.33;;;12.10;99.90;;;;;;5027195;28;20611;-59
2023/10/03 00:48:11;;;;;;;64.77;20.53;;;12.10;99.90;;;;;;5025841;28;20518;-58
2023/10/03 00:50:38;;;;;;;61.53;18.70;;;12.10;99.90;;;;;;5022938;28;20437;-59
2023/10/03 00:53:09;;;;;;;50.97;19.50;;;12.10;99.90;;;;;;5022312;28;21096;-59
2023/10/03 00:55:39;;;;;;;48.33;17.70;;;12.10;99.90;;;;;;5028959;28;20449;-58
2023/10/03 00:58:07;;;;;;;62.47;16.97;;;12.10;99.90;;;;;;5026871;28;20959;-58
2023/10/03 01:00:50;;;;;;;61.20;17.67;;;12.10;99.90;;;;;;5028531;28;20937;-59
2023/10/03 01:03:36;;;;;;;44.20;15.67;;;12.10;99.90;;;;;;5029447;28;20426;-59
2023/10/03 01:06:09;;;;;;;46.90;16.93;;;12.00;99.90;;;;;;5029900;28;20441;-58
2023/10/03 01:08:39;;;;;;;44.63;16.50;;;12.00;99.90;;;;;;5029764;28;20956;-59
2023/10/03 01:11:07;;;;;;;39.03;15.30;;;12.00;99.90;;;;;;5029737;28;21103;-59
2023/10/03 01:13:34;;;;;;;43.23;15.90;;;12.00;99.90;;;;;;5028420;28;20775;-59
2023/10/03 01:16:03;;;;;;;46.57;16.07;;;11.90;99.90;;;;;;5030324;28;20454;-58
2023/10/03 01:18:31;;;;;;;42.87;16.97;;;12.00;99.90;;;;;;5028463;28;20446;-58
2023/10/03 01:21:00;;;;;;;47.47;15.27;;;12.00;99.90;;;;;;5030283;28;20495;-58
2023/10/03 01:23:35;;;;;;;39.50;17.23;;;11.90;99.90;;;;;;5028415;28;20451;-58
2023/10/03 01:26:05;;;;;;;47.13;16.33;;;11.90;99.90;;;;;;5029760;28;20525;-59
2023/10/03 01:28:30;;;;;;;43.20;16.80;;;11.90;99.90;;;;;;5030650;28;20449;-59
2023/10/03 01:30:57;;;;;;;36.80;15.70;;;11.90;99.90;;;;;;5030278;28;20956;-59
2023/10/03 01:33:26;;;;;;;41.47;15.50;;;11.90;99.90;;;;;;5031054;28;20271;-59
2023/10/03 01:35:55;;;;;;;42.83;15.80;;;11.80;99.90;;;;;;5026133;28;20458;-56
2023/10/03 01:38:22;;;;;;;33.47;16.20;;;11.80;99.90;;;;;;5028586;28;20438;-59
2023/10/03 01:40:57;;;;;;;44.37;16.50;;;11.70;99.90;;;;;;5030117;28;20422;-58
2023/10/03 01:43:22;;;;;;;40.90;15.50;;;11.70;99.90;;;;;;5025023;28;20433;-58
2023/10/03 01:45:49;;;;;;;35.43;16.37;;;11.60;99.90;;;;;;5022317;28;21011;-58
2023/10/03 01:48:17;;;;;;;39.10;14.90;;;11.60;99.90;;;;;;5025906;28;20200;-59
2023/10/03 01:50:42;;;;;;;34.47;16.20;;;11.60;99.90;;;;;;5024341;28;20430;-59
2023/10/03 01:53:08;;;;;;;39.10;18.60;;;11.60;99.90;;;;;;5028432;28;20422;-59
2023/10/03 01:55:34;;;;;;;39.37;16.03;;;11.50;99.90;;;;;;5027570;28;20546;-59
2023/10/03 01:57:59;;;;;;;35.70;15.63;;;11.50;99.90;;;;;;5023527;28;20725;-59
2023/10/03 02:00:26;;;;;;;;;;;;;;;;;;;;;
2023/10/03 02:03:13;;;;;;;38.80;16.33;;;11.40;99.90;;;;;;5029892;28;20323;-59
2023/10/03 02:05:41;;;;;;;36.70;15.70;;;11.50;99.90;;;;;;5024438;28;20203;-58
2023/10/03 02:08:15;;;;;;;45.50;17.67;;;11.40;99.90;;;;;;5021576;28;20945;-59
2023/10/03 02:10:45;;;;;;;33.90;16.57;;;11.40;99.90;;;;;;5025474;28;20464;-61
2023/10/03 02:13:14;;;;;;;44.97;16.83;;;11.40;99.90;;;;;;5029563;28;20422;-58
2023/10/03 02:15:48;;;;;;;46.07;14.67;;;11.40;99.90;;;;;;5027494;28;20450;-59
2023/10/03 02:18:18;;;;;;;34.00;15.57;;;11.40;99.90;;;;;;5021516;28;20443;-58
2023/10/03 02:21:02;;;;;;;42.63;17.00;;;11.40;99.90;;;;;;5029141;28;20434;-59
2023/10/03 02:23:28;;;;;;;49.87;16.37;;;11.40;99.90;;;;;;5028457;28;20415;-59
2023/10/03 02:26:05;;;;;;;46.07;17.13;;;11.30;99.90;;;;;;5029302;28;20430;-59
2023/10/03 02:28:31;;;;;;;41.80;14.90;;;11.30;99.90;;;;;;5024595;28;20211;-59
2023/10/03 02:30:57;;;;;;;47.43;16.23;;;11.30;99.90;;;;;;5024416;28;20440;-58
2023/10/03 02:33:23;;;;;;;34.57;14.70;;;11.30;99.90;;;;;;5030054;28;20492;-59
2023/10/03 02:35:50;;;;;;;26.03;13.63;;;11.30;99.90;;;;;;5027445;28;20196;-59
2023/10/03 02:41:19;;;;;;;31.40;14.10;;;11.20;99.90;;;;;;5001146;28;20411;-59
2023/10/03 02:43:47;;;;;;;23.50;13.17;;;11.20;99.90;;;;;;5024067;28;20480;-58
2023/10/03 02:46:12;;;;;;;33.00;13.40;;;11.20;99.90;;;;;;5024724;28;20916;-58
2023/10/03 02:48:38;;;;;;;36.20;14.60;;;11.20;99.90;;;;;;5026400;28;20557;-58
2023/10/03 02:51:05;;;;;;;47.90;14.50;;;11.10;99.90;;;;;;5028611;28;20225;-56
2023/10/03 02:53:31;;;;;;;35.57;14.63;;;11.10;99.90;;;;;;5029111;28;20435;-58
2023/10/03 02:55:58;;;;;;;42.20;15.53;;;11.10;99.90;;;;;;5027912;28;20965;-59
2023/10/03 02:58:23;;;;;;;59.00;14.07;;;11.10;99.90;;;;;;5027051;28;20759;-58
2023/10/03 03:00:56;;;;;;;33.83;16.00;;;11.10;99.90;;;;;;5024296;28;20418;-59
2023/10/03 03:03:32;;;;;;;39.87;15.57;;;11.10;99.90;;;;;;5026042;28;20283;-58
2023/10/03 03:05:59;;;;;;;43.23;14.03;;;11.10;99.90;;;;;;5023830;28;20423;-58
2023/10/03 03:08:28;;;;;;;46.90;13.10;;;11.10;99.90;;;;;;5023746;28;20530;-59
2023/10/03 03:10:58;;;;;;;47.37;13.53;;;11.10;99.90;;;;;;5028305;28;20921;-59
2023/10/03 03:13:35;;;;;;;31.93;12.70;;;11.10;99.90;;;;;;5028643;28;20418;-59
2023/10/03 03:16:04;;;;;;;54.90;15.03;;;11.10;99.90;;;;;;5022266;28;20497;-59
2023/10/03 03:18:36;;;;;;;32.90;13.53;;;11.10;99.90;;;;;;5026315;28;20451;-58
2023/10/03 03:21:04;;;;;;;30.23;13.67;;;11.10;99.90;;;;;;5028114;28;20764;-59
2023/10/03 03:23:35;;;;;;;26.47;13.93;;;11.00;99.90;;;;;;5028423;28;20442;-58
2023/10/03 03:28:40;;;;;;;28.60;13.10;;;11.00;99.90;;;;;;5020378;28;20457;-59
2023/10/03 03:31:17;;;;;;;30.73;13.43;;;11.00;99.90;;;;;;5029894;28;20445;-59
2023/10/03 03:33:46;;;;;;;27.87;13.50;;;10.90;99.90;;;;;;5028713;28;20537;-58
2023/10/03 03:36:20;;;;;;;29.13;13.43;;;10.90;99.90;;;;;;5027435;28;20457;-58
2023/10/03 03:38:47;;;;;;;25.63;12.30;;;10.90;99.90;;;;;;5023515;28;20807;-59
2023/10/03 03:41:13;;;;;;;28.03;13.47;;;10.80;99.90;;;;;;5027815;28;20921;-58
2023/10/03 03:43:39;;;;;;;25.53;11.57;;;10.80;99.90;;;;;;5028315;28;20413;-59
2023/10/03 03:46:05;;;;;;;26.70;12.37;;;10.80;99.90;;;;;;5024959;28;20815;-59
2023/10/03 03:48:34;;;;;;;25.30;11.97;;;10.80;99.90;;;;;;5029361;28;20215;-58
2023/10/03 03:51:11;;;;;;;23.13;12.07;;;10.80;99.90;;;;;;5026632;28;20187;-59
2023/10/03 03:53:38;;;;;;;34.53;13.83;;;10.80;99.90;;;;;;5025972;28;20501;-59
2023/10/03 03:56:05;;;;;;;25.10;12.47;;;10.70;99.90;;;;;;5028745;28;21392;-59
2023/10/03 03:58:31;;;;;;;23.80;12.30;;;10.70;99.90;;;;;;5024455;28;20434;-59
2023/10/03 04:00:58;;;;;;;24.30;11.70;;;10.70;99.90;;;;;;5026848;28;20429;-59
2023/10/03 04:03:24;;;;;;;28.00;13.30;;;10.70;99.90;;;;;;5028449;28;20187;-59
2023/10/03 04:05:50;;;;;;;28.47;13.17;;;10.70;99.90;;;;;;5025548;28;20431;-59
2023/10/03 04:08:16;;;;;;;30.37;14.57;;;10.80;99.90;;;;;;5022833;28;20214;-59
2023/10/03 04:10:45;;;;;;;27.03;12.20;;;10.80;99.90;;;;;;5027266;28;20426;-59
2023/10/03 04:13:14;;;;;;;23.57;12.30;;;10.80;99.90;;;;;;5026803;28;20787;-59
2023/10/03 04:15:40;;;;;;;32.40;14.83;;;10.80;99.90;;;;;;5023509;28;20508;-58
2023/10/03 04:18:15;;;;;;;28.17;13.70;;;10.80;99.90;;;;;;5026595;28;20434;-58
2023/10/03 04:20:44;;;;;;;26.40;13.10;;;10.80;99.90;;;;;;5022346;28;20167;-58
2023/10/03 04:23:11;;;;;;;26.50;12.57;;;10.80;99.90;;;;;;5024279;28;20989;-57
2023/10/03 04:25:39;;;;;;;27.10;13.30;;;10.70;99.90;;;;;;5021964;28;20433;-58
2023/10/03 04:28:05;;;;;;;26.60;13.07;;;10.70;99.90;;;;;;5024619;28;21027;-59
2023/10/03 04:30:31;;;;;;;29.10;13.43;;;10.70;99.90;;;;;;5026732;28;20424;-59
2023/10/03 04:32:57;;;;;;;39.37;12.70;;;10.70;99.90;;;;;;5021223;28;20427;-59
2023/10/03 04:35:24;;;;;;;34.93;11.93;;;10.60;99.90;;;;;;5026761;28;20672;-58
2023/10/03 04:37:51;;;;;;;60.70;12.33;;;10.60;99.90;;;;;;5024513;28;20440;-59
2023/10/03 04:40:22;;;;;;;30.10;11.43;;;10.60;99.90;;;;;;5027072;28;20407;-59
2023/10/03 04:42:58;;;;;;;31.27;11.93;;;10.40;99.90;;;;;;5023925;28;20421;-58
2023/10/03 04:45:25;;;;;;;24.20;12.17;;;10.40;99.90;;;;;;5023076;28;20794;-59
2023/10/03 04:47:51;;;;;;;18.63;11.27;;;10.30;99.90;;;;;;5023755;28;20445;-58
2023/10/03 04:50:18;;;;;;;19.07;10.23;;;10.30;99.90;;;;;;5025525;28;20418;-58
2023/10/03 04:52:48;;;;;;;23.20;12.00;;;10.30;99.90;;;;;;5025970;28;20850;-58
2023/10/03 04:55:18;;;;;;;24.10;12.60;;;10.30;99.90;;;;;;5025475;28;21203;-59
2023/10/03 04:57:45;;;;;;;21.70;11.40;;;10.30;99.90;;;;;;5027665;28;21187;-58
2023/10/03 05:00:15;;;;;;;26.40;13.20;;;10.20;99.90;;;;;;5021138;28;20433;-59
2023/10/03 05:02:48;;;;;;;21.73;12.07;;;10.30;99.90;;;;;;5022970;28;20955;-58
2023/10/03 05:05:22;;;;;;;30.37;11.87;;;10.30;99.90;;;;;;5022304;28;20414;-58
2023/10/03 05:07:49;;;;;;;48.27;12.97;;;10.20;99.90;;;;;;5026158;28;20529;-58
2023/10/03 05:10:17;;;;;;;33.23;11.67;;;10.30;99.90;;;;;;5023833;28;20429;-58
2023/10/03 05:12:45;;;;;;;28.43;12.87;;;10.20;99.90;;;;;;5024665;28;20421;-59
2023/10/03 05:15:12;;;;;;;44.43;11.20;;;10.20;99.90;;;;;;5024631;28;20476;-58
2023/10/03 05:17:38;;;;;;;23.77;10.10;;;10.10;99.90;;;;;;5021655;28;20422;-58
2023/10/03 05:20:04;;;;;;;26.23;10.60;;;10.10;99.90;;;;;;5023076;28;20419;-58
2023/10/03 05:22:32;;;;;;;13.80;7.70;;;10.00;99.90;;;;;;5026931;28;20399;-58
2023/10/03 05:24:58;;;;;;;16.87;8.93;;;10.00;99.90;;;;;;5026351;28;20425;-59
2023/10/03 05:27:24;;;;;;;17.70;9.83;;;10.00;99.90;;;;;;5026819;28;20441;-59
2023/10/03 05:29:51;;;;;;;16.90;8.93;;;10.00;99.90;;;;;;5026335;28;20414;-58
2023/10/03 05:32:17;;;;;;;17.93;10.03;;;10.10;99.90;;;;;;5025255;28;20167;-60
2023/10/03 05:34:43;;;;;;;16.27;8.80;;;10.10;99.90;;;;;;5026791;28;20457;-61
2023/10/03 05:37:10;;;;;;;21.50;10.10;;;10.20;99.90;;;;;;5026221;28;20415;-60
2023/10/03 05:39:36;;;;;;;21.93;10.33;;;10.20;99.90;;;;;;5026555;28;20241;-59
2023/10/03 05:42:02;;;;;;;18.10;10.17;;;10.30;99.90;;;;;;5022336;28;20510;-60
2023/10/03 05:44:27;;;;;;;25.73;11.37;;;10.30;99.90;;;;;;5029837;28;20171;-59
2023/10/03 05:46:55;;;;;;;20.77;10.37;;;10.30;99.90;;;;;;5029324;28;20164;-60
2023/10/03 05:49:22;;;;;;;25.67;12.63;;;10.40;99.90;;;;;;5029786;28;20188;-60
2023/10/03 05:51:49;;;;;;;30.13;12.50;;;10.40;99.90;;;;;;5023729;28;20406;-59
2023/10/03 05:54:15;;;;;;;23.83;11.80;;;10.40;99.90;;;;;;5030341;28;20410;-59
2023/10/03 05:56:40;;;;;;;22.40;11.77;;;10.50;99.90;;;;;;5025887;28;20461;-59
2023/10/03 05:59:07;;;;;;;21.60;12.07;;;10.50;99.90;;;;;;5027997;28;20455;-59
2023/10/03 06:01:32;;;;;;;24.60;11.87;;;10.50;99.90;;;;;;5025164;28;20172;-59
2023/10/03 06:03:58;;;;;;;32.30;13.20;;;10.50;99.90;;;;;;5027120;28;20437;-60
2023/10/03 06:06:23;;;;;;;24.27;11.03;;;10.50;99.90;;;;;;5027986;28;20270;-59
2023/10/03 06:08:49;;;;;;;23.53;11.53;;;10.60;99.90;;;;;;5028477;28;20828;-60
2023/10/03 06:11:18;;;;;;;27.87;12.33;;;10.60;99.90;;;;;;5029963;28;20183;-59
2023/10/03 06:13:44;;;;;;;39.70;10.93;;;10.60;99.90;;;;;;5028794;28;20195;-60
2023/10/03 06:16:14;;;;;;;26.93;12.50;;;10.60;99.90;;;;;;5026170;28;21015;-61
2023/10/03 06:18:40;;;;;;;29.63;12.40;;;10.60;99.90;;;;;;5025555;28;20426;-59
2023/10/03 06:21:07;;;;;;;31.03;11.03;;;10.60;99.90;;;;;;5026981;28;20438;-61
2023/10/03 06:23:34;;;;;;;25.00;12.20;;;10.70;99.90;;;;;;5029175;28;20464;-59
2023/10/03 06:26:00;;;;;;;35.23;12.13;;;10.70;99.90;;;;;;5020212;28;21129;-59
2023/10/03 06:28:25;;;;;;;20.50;10.63;;;10.70;99.90;;;;;;5027421;28;20434;-59
2023/10/03 06:30:52;;;;;;;19.87;9.50;;;10.70;99.90;;;;;;5028809;28;20857;-59
2023/10/03 06:33:18;;;;;;;18.90;10.63;;;10.70;99.90;;;;;;5028548;28;20175;-59
2023/10/03 06:35:43;;;;;;;21.50;10.80;;;10.70;99.90;;;;;;5029471;28;20788;-60
2023/10/03 06:38:10;;;;;;;20.23;10.10;;;10.80;99.90;;;;;;5026557;28;20188;-59
2023/10/03 06:40:36;;;;;;;18.93;10.50;;;10.80;99.90;;;;;;5028966;28;20168;-59
2023/10/03 06:43:02;;;;;;;23.10;12.17;;;10.90;99.90;;;;;;5025877;28;20941;-61
2023/10/03 06:45:28;;;;;;;20.43;11.63;;;10.90;99.90;;;;;;5030397;28;20529;-60
2023/10/03 06:47:55;;;;;;;22.23;10.80;;;11.00;99.90;;;;;;5027319;28;20191;-60
2023/10/03 06:50:23;;;;;;;17.90;9.93;;;11.00;99.90;;;;;;5025669;28;20262;-59
2023/10/03 06:52:48;;;;;;;20.80;10.70;;;11.00;99.90;;;;;;5022795;28;20776;-57
2023/10/03 06:55:15;;;;;;;24.13;11.90;;;11.10;99.90;;;;;;5028502;28;20465;-60
2023/10/03 06:57:41;;;;;;;19.87;10.37;;;11.10;99.90;;;;;;5024298;28;20254;-59
2023/10/03 07:00:14;;;;;;;20.13;11.13;;;11.20;99.90;;;;;;5023841;28;20419;-59
2023/10/03 07:02:41;;;;;;;18.77;10.50;;;11.20;99.90;;;;;;5028023;28;20441;-59
2023/10/03 07:05:07;;;;;;;18.60;9.70;;;11.30;99.90;;;;;;5028366;28;20423;-60
2023/10/03 07:07:34;;;;;;;21.47;11.70;;;11.30;99.90;;;;;;5029265;28;20518;-59
2023/10/03 07:09:59;;;;;;;18.97;10.70;;;11.40;99.90;;;;;;5025414;28;20445;-59
2023/10/03 07:12:25;;;;;;;17.90;10.23;;;11.40;99.90;;;;;;5029261;28;20431;-59
2023/10/03 07:14:51;;;;;;;22.20;11.67;;;11.50;99.90;;;;;;5028317;28;20689;-60
2023/10/03 07:17:16;;;;;;;22.60;12.50;;;11.60;99.90;;;;;;5025281;28;20422;-60
2023/10/03 07:19:46;;;;;;;17.87;10.67;;;11.60;99.90;;;;;;5023873;28;20391;-61
2023/10/03 07:22:11;;;;;;;24.40;12.47;;;11.70;99.90;;;;;;5027785;28;20164;-62
2023/10/03 07:24:39;;;;;;;18.97;10.27;;;11.80;99.90;;;;;;5029075;28;20417;-60
2023/10/03 07:27:08;;;;;;;18.60;10.67;;;11.90;99.90;;;;;;5024838;28;20691;-61
2023/10/03 07:29:36;;;;;;;20.70;11.00;;;12.00;99.90;;;;;;5028175;28;20484;-59
2023/10/03 07:32:03;;;;;;;22.07;10.30;;;12.00;99.90;;;;;;5028869;28;20882;-60
2023/10/03 07:34:29;;;;;;;19.47;9.97;;;12.10;99.90;;;;;;5027414;28;20463;-60
2023/10/03 07:36:57;;;;;;;22.87;11.40;;;12.20;99.90;;;;;;5024956;28;20502;-60
2023/10/03 07:39:25;;;;;;;20.50;11.27;;;12.30;99.90;;;;;;5026273;28;20689;-61
2023/10/03 07:41:51;;;;;;;22.93;10.80;;;12.40;99.90;;;;;;5025408;28;20433;-59
2023/10/03 07:44:22;;;;;;;20.93;10.90;;;12.50;99.90;;;;;;5026444;28;20463;-58
2023/10/03 07:46:47;;;;;;;24.27;11.93;;;12.60;99.90;;;;;;5029067;28;20454;-59
2023/10/03 07:49:13;;;;;;;22.03;12.20;;;12.70;99.90;;;;;;5027088;28;20441;-60
2023/10/03 07:51:39;;;;;;;24.33;12.77;;;12.80;99.90;;;;;;5023706;28;20172;-60
2023/10/03 07:54:05;;;;;;;25.00;12.00;;;12.90;99.90;;;;;;5024608;28;20183;-58
2023/10/03 07:56:32;;;;;;;25.13;12.00;;;13.00;99.90;;;;;;5029025;28;20207;-59
2023/10/03 07:59:01;;;;;;;22.47;11.73;;;13.10;99.90;;;;;;5023393;28;20472;-59
2023/10/03 08:01:27;;;;;;;21.93;11.20;;;13.20;99.90;;;;;;5023498;28;20446;-59
2023/10/03 08:03:55;;;;;;;28.53;12.17;;;13.40;99.90;;;;;;5027065;28;20487;-59
2023/10/03 08:06:23;;;;;;;24.90;11.37;;;13.50;99.90;;;;;;5023205;28;20935;-60
2023/10/03 08:08:52;;;;;;;26.77;12.00;;;13.60;99.90;;;;;;5026904;28;20464;-59
2023/10/03 08:11:18;;;;;;;22.27;12.10;;;13.70;99.90;;;;;;5021076;28;21123;-59
2023/10/03 08:13:43;;;;;;;23.27;11.07;;;13.80;99.90;;;;;;5028076;28;20548;-59
2023/10/03 08:16:12;;;;;;;28.07;12.00;;;13.90;99.90;;;;;;5027844;28;20265;-60
2023/10/03 08:18:46;;;;;;;22.90;11.30;;;14.00;99.90;;;;;;5019367;28;20881;-62
2023/10/03 08:21:12;;;;;;;26.93;12.80;;;14.10;99.90;;;;;;5021707;28;20503;-59
2023/10/03 08:23:38;;;;;;;27.43;13.07;;;14.20;99.90;;;;;;5022338;28;20509;-60
2023/10/03 08:26:03;;;;;;;24.17;11.43;;;14.30;99.90;;;;;;5025739;28;20992;-59
2023/10/03 08:28:30;;;;;;;25.53;11.70;;;14.50;99.90;;;;;;5026523;28;20271;-59
2023/10/03 08:30:56;;;;;;;28.20;15.10;;;14.60;99.90;;;;;;5027057;28;20644;-60
2023/10/03 08:33:22;;;;;;;23.50;13.17;;;14.70;99.90;;;;;;5018855;28;20493;-60
2023/10/03 08:35:49;;;;;;;26.53;11.67;;;14.90;99.90;;;;;;5027308;28;20461;-60
2023/10/03 08:38:14;;;;;;;25.40;12.80;;;15.00;99.90;;;;;;5019632;28;20442;-59
2023/10/03 08:40:42;;;;;;;26.40;13.43;;;15.20;99.90;;;;;;5027633;28;21179;-60
2023/10/03 08:43:11;;;;;;;24.10;12.00;;;15.30;99.90;;;;;;5025919;28;20222;-59
2023/10/03 08:45:43;;;;;;;26.30;12.40;;;15.50;99.90;;;;;;5019493;28;20429;-60
2023/10/03 08:48:10;;;;;;;24.70;11.87;;;15.70;99.90;;;;;;5023509;28;20454;-59
2023/10/03 08:50:46;;;;;;;22.40;11.90;;;15.90;99.90;;;;;;5027291;28;20465;-60
2023/10/03 08:53:12;;;;;;;28.67;12.63;;;16.00;99.90;;;;;;5025161;28;20418;-62
2023/10/03 08:55:48;;;;;;;25.33;12.03;;;16.20;99.90;;;;;;5025745;28;20994;-61
2023/10/03 08:58:16;;;;;;;23.53;11.07;;;16.30;99.90;;;;;;5025703;28;20470;-59
2023/10/03 09:00:44;;;;;;;23.93;12.50;;;16.50;99.90;;;;;;5020103;28;20429;-61
2023/10/03 09:03:15;;;;;;;23.50;12.37;;;16.70;99.90;;;;;;5026980;28;20924;-60
2023/10/03 09:05:41;;;;;;;27.93;12.60;;;16.80;99.90;;;;;;5027225;28;20410;-60
2023/10/03 09:08:12;;;;;;;23.30;11.57;;;17.00;99.90;;;;;;5026443;28;20438;-59
2023/10/03 09:10:51;;;;;;;22.70;11.47;;;17.20;99.90;;;;;;5023855;28;20533;-59
2023/10/03 09:13:27;;;;;;;29.30;11.83;;;17.40;99.90;;;;;;5027504;28;20472;-60
2023/10/03 09:16:07;;;;;;;22.30;11.10;;;17.60;99.90;;;;;;5029524;28;20454;-60
2023/10/03 09:18:43;;;;;;;19.63;10.37;;;17.80;99.90;;;;;;5025173;28;20549;-60
2023/10/03 09:21:23;;;;;;;22.07;9.80;;;18.00;99.90;;;;;;5026791;28;20484;-60
2023/10/03 09:24:15;;;;;;;18.40;10.10;;;18.30;99.90;;;;;;5025964;28;20402;-59
2023/10/03 09:26:51;;;;;;;19.67;10.20;;;18.50;99.90;;;;;;5028208;28;20519;-59
2023/10/03 09:29:31;;;;;;;17.70;9.30;;;18.70;99.90;;;;;;5026813;28;20445;-60
2023/10/03 09:32:20;;;;;;;19.43;8.60;;;19.00;99.90;;;;;;5030227;28;20448;-61
2023/10/03 09:34:56;;;;;;;18.60;9.87;;;19.20;99.90;;;;;;5022366;28;20434;-60
2023/10/03 09:37:28;;;;;;;16.70;8.90;;;19.40;99.90;;;;;;5028899;28;20425;-60
2023/10/03 09:39:59;;;;;;;15.80;8.37;;;19.60;99.90;;;;;;5030148;28;20936;-59
2023/10/03 09:42:25;;;;;;;12.60;7.90;;;19.80;99.40;;;;;;5029726;28;20446;-61
2023/10/03 09:44:51;;;;;;;16.63;9.00;;;19.90;98.60;;;;;;5028378;28;20450;-59
2023/10/03 09:47:18;;;;;;;14.70;7.67;;;20.10;97.40;;;;;;5030568;28;20171;-61
2023/10/03 09:49:46;;;;;;;14.70;7.43;;;20.20;94.60;;;;;;5030245;28;20529;-60
2023/10/03 09:52:22;;;;;;;13.83;7.50;;;20.30;92.10;;;;;;5028290;28;20464;-61
2023/10/03 09:54:53;;;;;;;17.07;8.07;;;20.40;91.50;;;;;;5026735;28;20437;-60
2023/10/03 09:57:23;;;;;;;16.40;8.57;;;20.60;86.20;;;;;;5027935;28;20414;-60
2023/10/03 09:59:49;;;;;;;14.63;8.03;;;20.70;76.50;;;;;;5029618;28;20944;-60
2023/10/03 10:02:35;;;;;;;12.07;7.33;;;20.80;80.40;;;;;;5026391;28;20442;-60
2023/10/03 10:05:19;;;;;;;12.70;7.90;;;20.90;79.30;;;;;;5026826;28;20445;-59
2023/10/03 10:08:06;;;;;;;14.13;8.03;;;21.10;74.30;;;;;;5028369;28;20781;-59
2023/10/03 10:10:33;;;;;;;13.20;7.70;;;21.20;73.30;;;;;;5024370;28;20441;-62
2023/10/03 10:13:12;;;;;;;11.40;7.37;;;21.30;75.00;;;;;;5029558;28;20425;-60
2023/10/03 10:16:00;;;;;;;14.40;8.27;;;21.40;73.00;;;;;;5025962;28;20485;-60
2023/10/03 10:18:43;;;;;;;12.20;7.33;;;21.60;70.20;;;;;;5027482;28;20442;-61
2023/10/03 10:21:25;;;;;;;14.37;7.63;;;21.60;71.50;;;;;;5026763;28;20428;-59
2023/10/03 10:24:15;;;;;;;16.60;7.40;;;21.70;72.20;;;;;;5026826;28;20410;-59
2023/10/03 10:26:42;;;;;;;14.93;7.67;;;21.80;71.20;;;;;;5015116;28;20519;-61
2023/10/03 10:29:09;;;;;;;13.30;8.00;;;21.90;72.30;;;;;;5023741;28;20450;-61
2023/10/03 10:31:44;;;;;;;17.13;8.03;;;22.00;72.90;;;;;;5029406;28;20417;-61
2023/10/03 10:34:35;;;;;;;14.73;6.93;;;22.20;68.70;;;;;;5028838;28;20430;-60
2023/10/03 10:37:09;;;;;;;14.37;7.93;;;22.40;65.90;;;;;;5024025;28;20438;-60
2023/10/03 10:42:55;;;;;;;13.43;6.90;;;22.70;67.40;;;;;;5017912;28;20769;-59
2023/10/03 10:45:21;;;;;;;15.53;7.90;;;23.00;66.50;;;;;;5025312;28;20791;-60
2023/10/03 10:47:50;;;;;;;16.10;8.40;;;23.10;66.00;;;;;;5028948;28;20441;-60
2023/10/03 10:50:17;;;;;;;15.30;8.57;;;23.30;67.30;;;;;;5026513;28;20415;-61
2023/10/03 10:52:57;;;;;;;13.40;7.30;;;23.50;67.00;;;;;;5028805;28;20407;-60
2023/10/03 10:55:26;;;;;;;12.53;7.50;;;23.80;63.70;;;;;;5023303;28;20824;-60
2023/10/03 10:58:12;;;;;;;13.00;7.43;;;23.90;62.40;;;;;;5026603;28;20427;-61
2023/10/03 11:00:39;;;;;;;13.53;7.80;;;23.90;63.80;;;;;;5020759;28;20572;-60
2023/10/03 11:03:06;;;;;;;11.40;7.50;;;24.00;63.10;;;;;;5023620;28;20522;-60
2023/10/03 11:05:43;;;;;;;10.40;7.23;;;24.00;63.10;;;;;;5027206;28;20805;-60
2023/10/03 11:08:09;;;;;;;10.37;6.70;;;24.00;62.10;;;;;;5026733;28;21179;-60
2023/10/03 11:10:35;;;;;;;15.17;7.20;;;24.20;61.70;;;;;;5024637;28;20501;-61
2023/10/03 11:13:04;;;;;;;11.23;7.10;;;24.50;60.90;;;;;;5023356;28;20313;-61
2023/10/03 11:15:30;;;;;;;12.93;7.03;;;24.70;59.30;;;;;;5027047;28;20195;-60
2023/10/03 11:17:58;;;;;;;9.97;6.40;;;25.10;57.70;;;;;;5024215;28;20533;-60
2023/10/03 11:20:24;;;;;;;11.27;5.40;;;25.30;56.10;;;;;;5024330;28;21269;-60
2023/10/03 11:22:50;;;;;;;9.40;5.40;;;25.40;53.50;;;;;;5028322;28;20513;-61
2023/10/03 11:25:16;;;;;;;12.63;5.53;;;25.20;53.20;;;;;;5028681;28;20585;-61
2023/10/03 11:27:42;;;;;;;9.70;6.00;;;24.90;52.80;;;;;;5024844;28;20266;-62
2023/10/03 11:30:22;;;;;;;8.13;4.90;;;24.70;54.00;;;;;;5027670;28;21051;-60
2023/10/03 11:32:48;;;;;;;18.40;6.17;;;24.60;54.20;;;;;;5023171;28;20171;-61
2023/10/03 11:35:19;;;;;;;10.63;5.20;;;24.50;54.50;;;;;;5028151;28;20458;-59
2023/10/03 11:37:46;;;;;;;15.80;6.20;;;24.30;54.70;;;;;;5026405;28;20499;-60
2023/10/03 11:40:20;;;;;;;9.27;5.60;;;24.20;55.30;;;;;;5025212;28;20426;-60
2023/10/03 11:43:07;;;;;;;10.60;5.40;;;24.20;56.00;;;;;;5020143;28;20418;-59
2023/10/03 11:45:33;;;;;;;11.00;5.53;;;24.50;56.40;;;;;;5024736;28;20508;-60
2023/10/03 11:48:19;;;;;;;13.03;6.40;;;25.00;56.20;;;;;;5026969;28;20540;-60
2023/10/03 11:50:45;;;;;;;8.73;5.07;;;25.50;53.70;;;;;;5025723;28;20601;-60
2023/10/03 11:53:12;;;;;;;8.10;5.07;;;25.80;52.10;;;;;;5019403;28;20422;-61
2023/10/03 11:55:40;;;;;;;11.63;5.60;;;26.10;51.90;;;;;;5022327;28;20484;-60
2023/10/03 11:58:07;;;;;;;11.53;5.47;;;26.30;50.60;;;;;;5027364;28;20450;-58
2023/10/03 12:00:34;;;;;;;7.70;4.63;;;26.40;50.20;;;;;;5025260;28;20187;-60
2023/10/03 12:02:59;;;;;;;6.37;4.47;;;26.50;49.50;;;;;;5023261;28;20183;-60
2023/10/03 12:05:28;;;;;;;7.30;4.83;;;26.60;49.60;;;;;;5024248;28;20253;-59
2023/10/03 12:07:56;;;;;;;9.57;5.30;;;26.70;48.70;;;;;;5022093;28;20728;-60
2023/10/03 12:10:24;;;;;;;10.57;4.93;;;26.80;48.70;;;;;;5026310;28;20283;-60
2023/10/03 12:12:50;;;;;;;9.43;5.27;;;27.00;48.20;;;;;;5027991;28;20175;-60
2023/10/03 12:15:17;;;;;;;7.80;5.50;;;27.20;49.30;;;;;;5023119;28;20195;-60
2023/10/03 12:17:47;;;;;;;7.07;4.80;;;27.30;48.10;;;;;;5026494;28;20627;-60
2023/10/03 12:20:16;;;;;;;9.07;5.20;;;27.30;47.60;;;;;;5025299;28;20164;-59
2023/10/03 12:22:50;;;;;;;6.33;4.73;;;27.40;47.20;;;;;;5024454;28;20704;-60
2023/10/03 12:25:21;;;;;;;9.23;5.50;;;27.40;46.70;;;;;;5020503;28;20172;-59
2023/10/03 12:27:47;;;;;;;18.30;5.23;;;27.30;48.10;;;;;;5024114;28;20218;-60
2023/10/03 12:30:15;;;;;;;7.87;5.17;;;27.40;47.80;;;;;;5026985;28;20204;-59
2023/10/03 12:32:43;;;;;;;8.83;4.73;;;27.50;46.70;;;;;;5025726;28;20237;-60
2023/10/03 12:35:09;;;;;;;8.20;5.30;;;27.50;46.80;;;;;;5025917;28;20270;-60
2023/10/03 12:37:36;;;;;;;10.57;4.87;;;27.50;46.80;;;;;;5026686;28;20526;-59
2023/10/03 12:40:13;;;;;;;7.70;4.83;;;27.50;46.20;;;;;;5025811;28;20171;-60
2023/10/03 12:42:41;;;;;;;6.93;4.60;;;27.30;46.10;;;;;;5025996;28;20169;-60
2023/10/03 12:45:07;;;;;;;7.23;5.63;;;27.10;47.40;;;;;;5026036;28;20358;-60
2023/10/03 12:47:35;;;;;;;11.13;4.80;;;26.70;47.80;;;;;;5023537;28;20187;-60
2023/10/03 12:50:02;;;;;;;8.03;5.33;;;26.30;48.70;;;;;;5026493;28;20218;-59